Time;durP1;ratioP1;P1;durP2;ratioP2;P2;SDS_P1;SDS_P2;PMS_P1;PMS_P2;Temp;Humidity;BMP_temperature;BMP_pressure;BME280_temperature;BME280_humidity;BME280_pressure;Samples;Min_cycle;Max_cycle;Signal;HPM_P1;HPM_P2
2024/02/02 00:01:33;;;;;;;18.60;9.18;;;;;;;2.93;100.00;100461.44;5076525;28;20032;-57
2024/02/02 00:03:58;;;;;;;17.48;8.35;;;;;;;2.92;100.00;100468.63;5075035;28;20025;-57
2024/02/02 00:06:24;;;;;;;18.15;7.32;;;;;;;2.88;100.00;100463.59;5069707;28;20029;-58
2024/02/02 00:08:49;;;;;;;17.52;6.95;;;;;;;2.79;100.00;100454.47;5077677;28;20472;-57
2024/02/02 00:11:15;;;;;;;16.20;5.90;;;;;;;2.74;100.00;100461.97;5074268;28;20042;-56
2024/02/02 00:13:40;;;;;;;11.68;5.38;;;;;;;2.70;100.00;100455.13;5078252;28;20047;-56
2024/02/02 00:16:05;;;;;;;20.83;6.15;;;;;;;2.80;100.00;100464.16;5074028;28;20031;-56
2024/02/02 00:18:31;;;;;;;13.43;5.85;;;;;;;2.81;100.00;100449.84;5074749;28;20032;-56
2024/02/02 00:20:56;;;;;;;11.52;5.93;;;;;;;2.88;100.00;100456.44;5075803;28;20051;-58
2024/02/02 00:23:23;;;;;;;12.57;6.07;;;;;;;2.85;100.00;100448.66;5071327;28;20063;-57
2024/02/02 00:25:48;;;;;;;12.45;6.13;;;;;;;2.75;100.00;100443.16;5075838;28;20032;-57
2024/02/02 00:28:13;;;;;;;15.80;6.15;;;;;;;2.63;100.00;100434.19;5077693;28;20035;-56
2024/02/02 00:30:40;;;;;;;11.93;5.63;;;;;;;2.55;100.00;100441.06;5066500;28;20456;-57
2024/02/02 00:33:06;;;;;;;14.05;6.18;;;;;;;2.41;100.00;100436.72;5076667;28;20104;-56
2024/02/02 00:35:32;;;;;;;12.93;6.07;;;;;;;2.26;100.00;100433.34;5078003;28;20042;-56
2024/02/02 00:37:58;;;;;;;15.40;5.65;;;;;;;2.24;100.00;100424.59;5075545;28;20384;-56
2024/02/02 00:40:24;;;;;;;11.65;5.50;;;;;;;2.28;100.00;100426.09;5074821;28;20028;-56
2024/02/02 00:42:49;;;;;;;14.60;5.20;;;;;;;2.13;100.00;100420.03;5080757;28;20031;-57
2024/02/02 00:45:15;;;;;;;12.52;5.03;;;;;;;2.04;100.00;100406.47;5073904;28;20016;-56
2024/02/02 00:47:40;;;;;;;13.95;5.60;;;;;;;1.98;100.00;100421.94;5083626;28;20021;-56
2024/02/02 00:50:06;;;;;;;15.65;5.20;;;;;;;1.93;100.00;100423.25;5077621;28;20147;-56
2024/02/02 00:52:32;;;;;;;13.40;5.15;;;;;;;1.91;100.00;100430.50;5075143;28;20025;-56
2024/02/02 00:54:58;;;;;;;11.75;4.93;;;;;;;1.89;100.00;100425.28;5081018;28;20025;-56
2024/02/02 00:57:23;;;;;;;16.80;5.50;;;;;;;1.86;100.00;100416.63;5068476;28;20069;-56
2024/02/02 00:59:50;;;;;;;20.83;7.10;;;;;;;1.83;100.00;100416.84;5074224;28;20024;-56
2024/02/02 01:02:16;;;;;;;24.38;7.97;;;;;;;1.72;100.00;100409.59;5066333;28;20387;-56
2024/02/02 01:04:42;;;;;;;16.75;6.93;;;;;;;1.71;100.00;100419.41;5067607;28;20028;-56
2024/02/02 01:07:08;;;;;;;21.15;7.28;;;;;;;1.71;100.00;100419.41;5062591;28;20035;-56
2024/02/02 01:09:34;;;;;;;16.35;7.18;;;;;;;1.64;100.00;100423.47;5070583;28;20021;-56
2024/02/02 01:12:00;;;;;;;14.27;6.50;;;;;;;1.64;100.00;100417.28;5066748;28;20016;-56
2024/02/02 01:14:25;;;;;;;14.35;5.40;;;;;;;1.51;100.00;100406.59;5078275;28;20382;-56
2024/02/02 01:16:51;;;;;;;23.58;6.57;;;;;;;1.49;100.00;100414.72;5070707;28;20049;-56
2024/02/02 01:19:16;;;;;;;22.00;7.47;;;;;;;1.42;100.00;100426.78;5078748;28;20369;-57
2024/02/02 01:21:42;;;;;;;22.20;8.35;;;;;;;1.42;100.00;100409.94;5064086;28;20017;-56
2024/02/02 01:24:07;;;;;;;21.55;8.85;;;;;;;1.45;100.00;100407.88;5073173;28;20400;-56
2024/02/02 01:26:33;;;;;;;27.73;9.68;;;;;;;1.45;100.00;100407.03;5063633;28;20024;-56
2024/02/02 01:28:58;;;;;;;16.02;7.70;;;;;;;1.45;100.00;100412.38;5073522;28;20052;-56
2024/02/02 01:31:23;;;;;;;19.60;7.10;;;;;;;1.59;100.00;100419.41;5072926;28;20398;-57
2024/02/02 01:33:49;;;;;;;24.38;7.68;;;;;;;1.59;100.00;100420.25;5069502;28;20115;-57
2024/02/02 01:36:15;;;;;;;18.33;7.50;;;;;;;1.65;100.00;100417.19;5068769;28;20028;-57
2024/02/02 01:38:41;;;;;;;19.67;7.68;;;;;;;1.50;100.00;100410.25;5069044;28;20030;-56
2024/02/02 01:41:06;;;;;;;14.55;6.35;;;;;;;1.39;100.00;100412.78;5073487;28;20441;-56
2024/02/02 01:43:32;;;;;;;15.82;6.80;;;;;;;1.27;100.00;100403.81;5072305;28;20104;-57
2024/02/02 01:45:57;;;;;;;12.13;6.35;;;;;;;1.35;100.00;100412.16;5071461;28;20020;-56
2024/02/02 01:48:24;;;;;;;23.25;6.55;;;;;;;1.38;100.00;100422.59;5069811;28;20032;-56
2024/02/02 01:50:49;;;;;;;16.83;5.88;;;;;;;1.29;100.00;100407.25;5070237;28;20028;-57
2024/02/02 01:53:15;;;;;;;12.55;5.43;;;;;;;1.38;100.00;100411.94;5076622;28;20032;-57
2024/02/02 01:55:41;;;;;;;12.70;5.55;;;;;;;1.45;100.00;100413.22;5068823;28;20028;-57
2024/02/02 01:58:06;;;;;;;15.07;6.00;;;;;;;1.52;100.00;100419.84;5071418;28;20119;-57
2024/02/02 02:00:32;;;;;;;13.80;5.63;;;;;;;1.59;100.00;100409.59;5066560;28;20197;-56
2024/02/02 02:02:57;;;;;;;16.60;6.20;;;;;;;1.62;100.00;100419.19;5067717;28;20529;-57
2024/02/02 02:05:23;;;;;;;13.88;6.32;;;;;;;1.61;100.00;100402.34;5071526;28;20036;-57
2024/02/02 02:07:48;;;;;;;18.42;6.13;;;;;;;1.58;100.00;100396.38;5070783;28;20031;-57
2024/02/02 02:10:14;;;;;;;14.18;5.93;;;;;;;1.54;100.00;100391.22;5073621;28;21113;-57
2024/02/02 02:12:40;;;;;;;19.55;5.38;;;;;;;1.58;100.00;100399.06;5062029;28;20124;-57
2024/02/02 02:15:06;;;;;;;14.30;5.70;;;;;;;1.64;100.00;100390.59;5069664;28;20024;-57
2024/02/02 02:17:31;;;;;;;15.43;5.75;;;;;;;1.71;100.00;100405.22;5060428;28;20028;-57
2024/02/02 02:19:58;;;;;;;15.15;5.78;;;;;;;1.72;100.00;100398.94;5070821;28;20035;-56
2024/02/02 02:22:24;;;;;;;13.43;5.60;;;;;;;1.79;100.00;100391.34;5071154;28;20032;-57
2024/02/02 02:24:49;;;;;;;13.48;5.78;;;;;;;1.78;100.00;100395.81;5069736;28;20024;-57
2024/02/02 02:27:15;;;;;;;18.02;6.13;;;;;;;1.75;100.00;100388.88;5065364;28;20031;-57
2024/02/02 02:29:40;;;;;;;14.68;5.43;;;;;;;1.74;100.00;100394.34;5072278;28;20384;-56
2024/02/02 02:32:06;;;;;;;14.38;5.32;;;;;;;1.84;100.00;100397.22;5072244;28;20035;-56
2024/02/02 02:34:32;;;;;;;13.20;5.45;;;;;;;1.90;100.00;100392.28;5065817;28;20082;-57
2024/02/02 02:36:57;;;;;;;15.43;5.25;;;;;;;1.97;100.00;100396.25;5068343;28;20036;-57
2024/02/02 02:39:22;;;;;;;12.73;5.43;;;;;;;1.95;100.00;100391.97;5075082;28;20116;-57
2024/02/02 02:41:48;;;;;;;12.00;4.97;;;;;;;1.90;100.00;100380.75;5063436;28;20039;-57
2024/02/02 02:44:13;;;;;;;9.70;4.85;;;;;;;1.82;100.00;100375.13;5069159;28;20032;-57
2024/02/02 02:46:40;;;;;;;11.13;5.00;;;;;;;1.81;100.00;100374.28;5065789;28;20047;-56
2024/02/02 02:49:06;;;;;;;15.13;4.97;;;;;;;1.78;100.00;100371.81;5072683;28;20026;-56
2024/02/02 02:51:31;;;;;;;12.40;5.18;;;;;;;1.78;100.00;100385.13;5070918;28;20024;-57
2024/02/02 02:53:57;;;;;;;14.80;4.47;;;;;;;1.77;100.00;100379.94;5073431;28;20119;-57
2024/02/02 02:56:23;;;;;;;16.80;5.10;;;;;;;1.71;100.00;100376.72;5074511;28;20040;-56
2024/02/02 02:58:48;;;;;;;15.82;5.28;;;;;;;1.69;100.00;100378.66;5057963;28;20182;-57
2024/02/02 03:01:14;;;;;;;14.38;5.28;;;;;;;1.81;100.00;100381.41;5069838;28;20036;-57
2024/02/02 03:03:39;;;;;;;16.50;4.57;;;;;;;1.99;100.00;100385.44;5066668;28;20030;-57
2024/02/02 03:06:05;;;;;;;13.02;4.63;;;;;;;1.98;100.00;100368.56;5070133;28;20367;-57
2024/02/02 03:08:30;;;;;;;10.88;4.45;;;;;;;2.01;100.00;100374.66;5072043;28;20024;-56
2024/02/02 03:10:58;;;;;;;10.73;5.38;;;;;;;1.87;100.00;100371.16;5075544;28;20369;-57
2024/02/02 03:13:23;;;;;;;11.55;5.57;;;;;;;1.88;100.00;100361.34;5074648;28;20051;-57
2024/02/02 03:15:49;;;;;;;11.98;5.53;;;;;;;1.90;100.00;100373.59;5075708;28;20099;-57
2024/02/02 03:18:14;;;;;;;13.60;5.28;;;;;;;1.90;100.00;100362.09;5073626;28;20070;-57
2024/02/02 03:20:40;;;;;;;11.55;4.75;;;;;;;1.92;100.00;100365.50;5074772;28;20025;-57
2024/02/02 03:23:05;;;;;;;13.63;5.57;;;;;;;1.97;100.00;100372.22;5072315;28;20074;-57
2024/02/02 03:25:30;;;;;;;12.40;5.50;;;;;;;2.12;100.00;100364.94;5071378;28;20051;-57
2024/02/02 03:27:56;;;;;;;11.30;5.35;;;;;;;2.15;100.00;100369.19;5072917;28;20364;-57
2024/02/02 03:30:21;;;;;;;11.23;4.47;;;;;;;2.16;100.00;100370.88;5073611;28;20032;-57
2024/02/02 03:32:46;;;;;;;14.10;5.03;;;;;;;2.26;100.00;100365.75;5074960;28;20040;-57
2024/02/02 03:35:12;;;;;;;12.43;5.07;;;;;;;2.27;100.00;100378.13;5075888;28;20099;-57
2024/02/02 03:37:37;;;;;;;12.23;4.63;;;;;;;2.27;100.00;100378.97;5065684;28;20024;-57
2024/02/02 03:40:04;;;;;;;9.50;5.10;;;;;;;2.35;100.00;100373.91;5074660;28;20092;-57
2024/02/02 03:42:29;;;;;;;15.65;5.40;;;;;;;2.48;100.00;100373.03;5073511;28;20027;-57
2024/02/02 03:44:55;;;;;;;11.32;4.40;;;;;;;2.48;100.00;100373.88;5074312;28;20099;-57
2024/02/02 03:47:20;;;;;;;9.23;4.60;;;;;;;2.37;100.00;100361.31;5073349;28;20021;-57
2024/02/02 03:49:46;;;;;;;11.00;4.10;;;;;;;2.30;100.00;100351.19;5076224;28;20024;-57
2024/02/02 03:52:11;;;;;;;12.95;4.68;;;;;;;2.35;100.00;100338.34;5074739;28;20099;-57
2024/02/02 03:54:37;;;;;;;9.63;5.20;;;;;;;2.39;100.00;100353.19;5073192;28;20024;-57
2024/02/02 03:57:02;;;;;;;9.18;5.20;;;;;;;2.03;100.00;100311.34;5099167;22;20092;-77
2024/02/02 03:59:28;;;;;;;8.63;4.90;;;;;;;2.19;100.00;100338.63;5089553;28;20189;-77
2024/02/02 04:01:53;;;;;;;12.65;4.97;;;;;;;2.06;100.00;100333.31;5074145;28;20023;-77
2024/02/02 04:04:19;;;;;;;10.00;4.93;;;;;;;2.27;100.00;100367.44;5089610;28;20087;-77
2024/02/02 04:06:44;;;;;;;11.35;4.72;;;;;;;2.14;100.00;100359.47;5077998;28;20096;-77
2024/02/02 04:09:10;;;;;;;8.82;4.40;;;;;;;2.12;100.00;100375.59;5069923;28;20033;-81
2024/02/02 04:11:38;;;;;;;13.20;4.50;;;;;;;2.23;100.00;100377.50;5052760;28;20063;-80
2024/02/02 04:14:20;;;;;;;10.33;4.53;;;;;;;2.24;100.00;100379.19;5074122;28;20021;-80
2024/02/02 04:16:50;;;;;;;10.75;4.30;;;;;;;2.19;100.00;100370.66;5062687;28;20343;-80
2024/02/02 04:19:17;;;;;;;12.65;4.32;;;;;;;1.96;100.00;100333.16;5032616;28;20374;-79
2024/02/02 04:21:58;;;;;;;14.10;4.93;;;;;;;2.22;100.00;100381.13;5053479;28;20028;-78
2024/02/02 04:24:25;;;;;;;11.25;5.40;;;;;;;2.23;100.00;100382.84;5069514;28;20126;-79
2024/02/02 04:26:51;;;;;;;11.85;5.38;;;;;;;2.32;100.00;100392.84;5047861;28;20062;-79
2024/02/02 04:29:22;;;;;;;8.77;4.75;;;;;;;2.42;100.00;100377.00;5069721;28;20021;-80
2024/02/02 04:31:53;;;;;;;10.68;4.75;;;;;;;2.59;100.00;100378.41;5062918;28;20029;-79
2024/02/02 04:34:18;;;;;;;12.30;5.03;;;;;;;2.62;100.00;100367.53;5067954;28;20142;-80
2024/02/02 04:36:44;;;;;;;9.77;4.40;;;;;;;2.82;100.00;100374.88;5063826;22;20036;-64
2024/02/02 04:39:10;;;;;;;8.40;4.20;;;;;;;2.85;100.00;100379.16;5073839;28;20029;-64
2024/02/02 04:41:36;;;;;;;8.40;5.07;;;;;;;2.84;100.00;100375.63;5071683;28;20032;-64
2024/02/02 04:44:01;;;;;;;8.10;4.35;;;;;;;2.93;100.00;100373.22;5073637;28;20028;-64
2024/02/02 04:46:29;;;;;;;7.80;4.55;;;;;;;2.87;100.00;100368.34;5084879;28;20024;-64
2024/02/02 04:48:54;;;;;;;7.97;4.20;;;;;;;2.74;100.00;100363.91;5085006;28;20074;-64
2024/02/02 04:51:20;;;;;;;10.88;4.95;;;;;;;2.71;100.00;100366.81;5075702;28;20028;-64
2024/02/02 04:53:45;;;;;;;12.88;4.95;;;;;;;2.70;100.00;100380.28;5094252;28;20105;-64
2024/02/02 04:56:11;;;;;;;12.55;4.55;;;;;;;2.67;100.00;100380.53;5083437;28;20035;-64
2024/02/02 04:58:36;;;;;;;10.07;4.60;;;;;;;2.80;100.00;100382.19;5085163;28;20036;-64
2024/02/02 05:01:01;;;;;;;8.32;4.68;;;;;;;2.75;100.00;100381.69;5087494;28;20044;-63
2024/02/02 05:03:27;;;;;;;11.20;4.53;;;;;;;2.77;100.00;100387.75;5089656;28;20042;-63
2024/02/02 05:05:53;;;;;;;9.07;4.78;;;;;;;2.78;100.00;100383.28;5088155;28;20021;-63
2024/02/02 05:08:19;;;;;;;9.70;5.22;;;;;;;2.77;100.00;100387.75;5089896;28;20032;-63
2024/02/02 05:10:45;;;;;;;10.35;4.68;;;;;;;2.81;100.00;100391.06;5085959;28;20032;-63
2024/02/02 05:13:10;;;;;;;9.02;4.60;;;;;;;2.89;100.00;100395.84;5087489;28;20031;-63
2024/02/02 05:15:36;;;;;;;9.07;4.38;;;;;;;2.90;100.00;100400.19;5090906;28;20528;-63
2024/02/02 05:18:01;;;;;;;9.73;4.45;;;;;;;2.94;100.00;100399.84;5073769;28;20119;-64
2024/02/02 05:20:27;;;;;;;8.95;4.38;;;;;;;2.98;100.00;100403.16;5091499;28;20456;-63
2024/02/02 05:22:52;;;;;;;8.80;4.10;;;;;;;3.04;100.00;100400.03;5094232;28;20039;-63
2024/02/02 05:25:17;;;;;;;15.63;4.05;;;;;;;2.95;100.00;100411.41;5092536;28;20032;-63
2024/02/02 05:27:43;;;;;;;13.52;4.95;;;;;;;3.15;100.00;100423.28;5083228;28;20026;-63
2024/02/02 05:30:10;;;;;;;8.25;4.38;;;;;;;3.18;100.00;100431.91;5073622;28;20024;-63
2024/02/02 05:32:35;;;;;;;7.70;4.38;;;;;;;3.14;100.00;100430.44;5088881;28;20393;-64
2024/02/02 05:35:10;;;;;;;7.32;4.03;;;;;;;3.13;100.00;100430.56;5088971;28;20107;-63
2024/02/02 05:37:35;;;;;;;8.55;4.30;;;;;;;3.05;100.00;100434.66;5086798;28;20024;-62
2024/02/02 05:40:00;;;;;;;11.02;4.35;;;;;;;3.03;100.00;100435.75;5092235;28;20030;-62
2024/02/02 05:42:26;;;;;;;15.77;6.55;;;;;;;3.11;100.00;100436.00;5086572;28;20020;-62
2024/02/02 05:44:51;;;;;;;16.17;6.07;;;;;;;3.17;100.00;100443.59;5093441;28;20028;-63
2024/02/02 05:47:17;;;;;;;12.65;5.25;;;;;;;3.28;100.00;100443.63;5084996;28;20038;-63
2024/02/02 05:49:42;;;;;;;14.75;6.95;;;;;;;3.28;100.00;100440.94;5089728;28;20100;-63
2024/02/02 05:52:09;;;;;;;10.82;5.53;;;;;;;3.27;100.00;100431.22;5092919;28;20462;-63
2024/02/02 05:54:41;;;;;;;11.00;5.22;;;;;;;3.22;100.00;100441.44;5047663;28;20408;-63
2024/02/02 05:57:06;;;;;;;11.85;5.20;;;;;;;3.20;100.00;100427.31;5038064;28;20044;-62
2024/02/02 05:59:32;;;;;;;14.48;5.97;;;;;;;3.23;100.00;100426.22;5038344;28;20026;-62
2024/02/02 06:01:57;;;;;;;10.95;5.93;;;;;;;3.27;100.00;100423.22;5042643;28;20029;-63
2024/02/02 06:04:23;;;;;;;13.88;6.13;;;;;;;3.27;100.00;100417.84;5043422;28;20021;-62
2024/02/02 06:06:48;;;;;;;16.13;5.95;;;;;;;3.27;100.00;100417.84;5037877;28;20080;-62
2024/02/02 06:09:14;;;;;;;12.25;6.03;;;;;;;3.20;100.00;100413.94;5047580;28;20067;-62
2024/02/02 06:11:39;;;;;;;11.07;5.38;;;;;;;3.24;100.00;100422.56;5040713;28;20029;-62
2024/02/02 06:14:05;;;;;;;11.50;6.63;;;;;;;3.21;100.00;100410.28;5042948;28;20033;-62
2024/02/02 06:16:30;;;;;;;15.27;5.93;;;;;;;3.28;100.00;100416.88;5045035;28;20428;-62
2024/02/02 06:18:56;;;;;;;11.15;5.85;;;;;;;3.31;100.00;100417.63;5046972;28;20032;-62
2024/02/02 06:21:21;;;;;;;10.80;5.60;;;;;;;3.37;100.00;100409.97;5040266;28;20022;-62
2024/02/02 06:23:47;;;;;;;14.55;6.03;;;;;;;3.37;100.00;100425.16;5038272;28;20079;-62
2024/02/02 06:26:12;;;;;;;13.70;5.68;;;;;;;3.48;100.00;100430.53;5041198;28;20052;-63
2024/02/02 06:28:38;;;;;;;11.65;4.80;;;;;;;3.43;100.00;100425.56;5042167;28;20029;-63
2024/02/02 06:31:04;;;;;;;12.05;5.75;;;;;;;3.35;100.00;100435.13;5040321;28;20030;-62
2024/02/02 06:33:30;;;;;;;9.52;5.70;;;;;;;3.34;100.00;100455.69;5041228;28;20397;-62
2024/02/02 06:35:56;;;;;;;19.35;6.25;;;;;;;3.39;100.00;100461.53;5042550;28;20025;-62
2024/02/02 06:38:22;;;;;;;11.73;5.60;;;;;;;3.51;100.00;100463.28;5040252;28;20026;-63
2024/02/02 06:40:47;;;;;;;10.13;5.65;;;;;;;3.59;100.00;100468.06;5040965;28;20036;-62
2024/02/02 06:43:12;;;;;;;10.15;5.30;;;;;;;3.63;100.00;100469.50;5047504;28;20474;-62
2024/02/02 06:45:38;;;;;;;11.18;5.28;;;;;;;3.49;100.00;100459.03;5041995;28;20025;-63
2024/02/02 06:48:04;;;;;;;10.52;5.18;;;;;;;3.52;100.00;100466.81;5045686;28;20113;-62
2024/02/02 06:50:30;;;;;;;9.65;4.78;;;;;;;3.71;100.00;100463.56;5037700;28;20024;-62
2024/02/02 06:52:56;;;;;;;10.13;4.93;;;;;;;3.74;100.00;100453.47;5051628;28;20116;-62
2024/02/02 06:55:21;;;;;;;12.75;5.72;;;;;;;3.69;100.00;100444.09;5039833;28;20100;-62
2024/02/02 06:57:48;;;;;;;11.45;5.40;;;;;;;3.62;100.00;100445.56;5047864;28;20041;-62
2024/02/02 07:00:15;;;;;;;9.85;4.95;;;;;;;3.62;100.00;100449.06;5047360;28;20040;-62
2024/02/02 07:02:42;;;;;;;14.18;7.18;;;;;;;3.64;100.00;100462.31;5038936;28;20090;-59
2024/02/02 07:05:08;;;;;;;14.30;7.38;;;;;;;3.61;100.00;100474.13;5034727;28;20021;-59
2024/02/02 07:07:34;;;;;;;13.20;6.70;;;;;;;3.68;100.00;100474.50;5032504;28;20037;-59
2024/02/02 07:10:00;;;;;;;14.27;7.18;;;;;;;3.67;100.00;100476.34;5033885;28;20021;-62
2024/02/02 07:12:34;;;;;;;14.93;6.47;;;;;;;3.87;100.00;100464.06;5029857;28;20032;-63
2024/02/02 07:15:04;;;;;;;12.10;6.00;;;;;;;3.90;100.00;100482.59;5025206;28;20381;-59
2024/02/02 07:17:39;;;;;;;12.73;5.78;;;;;;;4.01;100.00;100484.44;5026328;28;20056;-59
2024/02/02 07:20:18;;;;;;;13.23;5.60;;;;;;;4.05;100.00;100488.56;5034944;28;20028;-59
2024/02/02 07:22:43;;;;;;;;;;;;;;;4.06;100.00;100484.94;5033072;28;20059;-60
2024/02/02 07:25:16;;;;;;;13.25;5.38;;;;;;;3.88;100.00;100481.84;5028346;28;19944;-59
2024/02/02 07:27:51;;;;;;;14.68;6.15;;;;;;;3.91;100.00;100478.09;5023508;28;20059;-59
2024/02/02 07:30:40;;;;;;;18.85;6.28;;;;;;;3.92;100.00;100477.94;5027000;28;20017;-59
2024/02/02 07:33:21;;;;;;;13.90;6.32;;;;;;;3.99;100.00;100478.34;5030989;28;20030;-59
2024/02/02 07:35:47;;;;;;;16.08;7.32;;;;;;;4.03;100.00;100473.59;5024371;28;20457;-59
2024/02/02 07:38:21;;;;;;;17.52;7.97;;;;;;;4.04;100.00;100467.28;5025257;28;20037;-59
2024/02/02 07:41:06;;;;;;;24.60;10.10;;;;;;;4.01;100.00;100451.41;5031080;28;20026;-59
2024/02/02 07:43:34;;;;;;;24.90;10.02;;;;;;;3.99;100.00;100440.00;5026927;28;20111;-59
2024/02/02 07:46:03;;;;;;;18.85;8.63;;;;;;;4.02;100.00;100437.94;5026061;28;20026;-60
2024/02/02 07:48:29;;;;;;;17.63;9.05;;;;;;;4.04;100.00;100436.00;5024730;28;20057;-59
2024/02/02 07:50:55;;;;;;;17.70;8.55;;;;;;;4.13;100.00;100445.94;5032886;28;20052;-59
2024/02/02 07:53:23;;;;;;;17.85;9.00;;;;;;;4.13;100.00;100448.63;5023238;28;20461;-60
2024/02/02 07:55:49;;;;;;;24.00;8.85;;;;;;;4.18;100.00;100449.13;5021398;28;20028;-60
2024/02/02 07:58:20;;;;;;;16.65;7.10;;;;;;;4.25;100.00;100448.66;5018313;28;20025;-60
2024/02/02 08:00:47;;;;;;;19.52;7.40;;;;;;;4.25;100.00;100432.59;5021903;28;20040;-59
2024/02/02 08:03:13;;;;;;;16.88;7.70;;;;;;;4.28;100.00;100451.09;5019357;28;20072;-60
2024/02/02 08:05:39;;;;;;;19.58;7.68;;;;;;;4.42;100.00;100455.31;5020763;28;20026;-59
2024/02/02 08:08:05;;;;;;;14.82;6.82;;;;;;;4.36;100.00;100445.97;5022694;28;20095;-59
2024/02/02 08:10:31;;;;;;;20.98;7.20;;;;;;;4.50;100.00;100447.53;5022340;28;20464;-59
2024/02/02 08:12:57;;;;;;;18.98;7.88;;;;;;;4.39;100.00;100446.56;5020863;28;20083;-59
2024/02/02 08:15:22;;;;;;;19.77;8.38;;;;;;;4.51;100.00;100447.41;5028370;28;20033;-59
2024/02/02 08:17:49;;;;;;;17.27;8.02;;;;;;;4.53;100.00;100434.75;5024148;28;20025;-59
2024/02/02 08:20:15;;;;;;;16.63;8.20;;;;;;;4.54;100.00;100423.03;5040502;28;20064;-60
2024/02/02 08:22:43;;;;;;;16.40;8.73;;;;;;;4.54;100.00;100431.06;5022498;28;20028;-59
2024/02/02 08:25:10;;;;;;;19.08;7.65;;;;;;;4.63;100.00;100447.38;5023699;28;20389;-59
2024/02/02 08:27:36;;;;;;;17.73;7.95;;;;;;;4.76;100.00;100434.69;5030929;28;20034;-59
2024/02/02 08:30:01;;;;;;;15.02;7.60;;;;;;;4.83;100.00;100434.03;5028435;28;20048;-59
2024/02/02 08:32:27;;;;;;;17.38;7.50;;;;;;;4.95;100.00;100442.03;5027703;28;20029;-59
2024/02/02 08:34:52;;;;;;;17.38;7.05;;;;;;;4.99;100.00;100457.78;5024565;28;20021;-59
2024/02/02 08:37:19;;;;;;;9.80;6.50;;;;;;;5.07;100.00;100450.94;5025648;28;20473;-60
2024/02/02 08:39:44;;;;;;;16.70;7.47;;;;;;;4.98;100.00;100456.06;5029300;28;20025;-60
2024/02/02 08:42:31;;;;;;;14.23;7.03;;;;;;;4.99;100.00;100424.72;5026053;28;20033;-59
2024/02/02 08:45:00;;;;;;;15.98;7.07;;;;;;;4.84;100.00;100425.00;5029037;28;20044;-60
2024/02/02 08:47:32;;;;;;;;;;;;;;;5.04;100.00;100426.06;5021645;28;20025;-59
2024/02/02 08:50:01;;;;;;;14.88;7.05;;;;;;;5.24;100.00;100429.75;5038131;28;19913;-59
2024/02/02 08:52:33;;;;;;;15.60;7.88;;;;;;;5.33;100.00;100420.06;5024103;28;20053;-59
2024/02/02 08:55:03;;;;;;;14.15;7.80;;;;;;;5.30;100.00;100406.91;5027920;28;20030;-60
2024/02/02 08:57:50;;;;;;;27.85;10.35;;;;;;;5.39;100.00;100400.75;5021498;28;20025;-59
2024/02/02 09:00:25;;;;;;;19.38;8.60;;;;;;;5.34;100.00;100407.50;5023975;28;20039;-59
2024/02/02 09:02:51;;;;;;;14.50;7.82;;;;;;;5.41;100.00;100414.91;5022953;28;20079;-60
2024/02/02 09:05:23;;;;;;;14.02;7.75;;;;;;;5.53;100.00;100431.81;5025492;28;20071;-60
2024/02/02 09:08:05;;;;;;;20.95;7.88;;;;;;;5.71;100.00;100426.66;5022438;28;20053;-60
2024/02/02 09:10:30;;;;;;;16.42;6.72;;;;;;;5.77;100.00;100428.84;5024267;28;20482;-60
2024/02/02 09:13:01;;;;;;;11.20;6.72;;;;;;;5.77;100.00;100419.94;5020291;28;20041;-60
2024/02/02 09:15:30;;;;;;;11.45;6.45;;;;;;;5.79;100.00;100417.94;5029435;28;20488;-60
2024/02/02 09:17:57;;;;;;;12.68;6.95;;;;;;;5.93;100.00;100417.63;5021733;28;20057;-59
2024/02/02 09:20:48;;;;;;;15.18;7.15;;;;;;;6.00;100.00;100412.56;5025718;28;20029;-59
2024/02/02 09:23:14;;;;;;;16.13;7.55;;;;;;;5.95;100.00;100409.44;5025951;28;20561;-58
2024/02/02 09:25:44;;;;;;;19.48;8.40;;;;;;;6.01;100.00;100416.97;5024529;28;20120;-59
2024/02/02 09:28:26;;;;;;;16.30;8.18;;;;;;;6.19;100.00;100423.44;5031019;28;20064;-58
2024/02/02 09:30:59;;;;;;;16.55;6.80;;;;;;;6.30;100.00;100430.53;5029511;28;20039;-59
2024/02/02 09:33:31;;;;;;;14.98;6.88;;;;;;;6.48;100.00;100438.81;5028152;28;20036;-59
2024/02/02 09:36:03;;;;;;;13.90;6.43;;;;;;;6.61;100.00;100435.88;5028094;28;20021;-60
2024/02/02 09:38:32;;;;;;;10.32;5.90;;;;;;;6.87;100.00;100444.28;5027882;28;20032;-60
2024/02/02 09:41:00;;;;;;;14.07;6.05;;;;;;;6.88;100.00;100435.22;5023875;28;20036;-60
2024/02/02 09:43:40;;;;;;;14.60;6.53;;;;;;;6.50;100.00;100423.41;5026716;28;20026;-54
2024/02/02 09:46:32;;;;;;;15.13;6.80;;;;;;;6.58;100.00;100418.19;5025615;28;20030;-54
2024/02/02 09:49:22;;;;;;;15.60;7.53;;;;;;;6.85;100.00;100435.50;5026462;28;20025;-53
2024/02/02 09:52:14;;;;;;;15.65;6.93;;;;;;;7.24;100.00;100445.28;5025124;28;20480;-54
2024/02/02 09:54:48;;;;;;;10.93;5.90;;;;;;;7.39;100.00;100436.81;5023353;28;20148;-56
2024/02/02 09:57:35;;;;;;;11.60;6.13;;;;;;;7.39;100.00;100432.28;5017081;28;20567;-56
2024/02/02 10:00:30;;;;;;;9.95;6.13;;;;;;;7.55;100.00;100434.38;5023666;23;20050;-56
2024/02/02 10:03:04;;;;;;;11.55;6.40;;;;;;;7.64;100.00;100430.81;5011844;28;20053;-55
2024/02/02 10:05:52;;;;;;;14.63;6.97;;;;;;;7.50;100.00;100395.41;5011248;28;20034;-55
2024/02/02 10:08:23;;;;;;;13.50;7.80;;;;;;;7.46;100.00;100437.91;5006938;28;20084;-54
2024/02/02 10:11:35;;;;;;;12.45;7.00;;;;;;;7.58;100.00;100447.56;5009773;28;20037;-53
2024/02/02 10:14:16;;;;;;;11.32;6.13;;;;;;;7.94;100.00;100447.78;5023890;28;20462;-53
2024/02/02 10:17:08;;;;;;;21.02;6.07;;;;;;;8.04;100.00;100427.03;5011322;28;20140;-53
2024/02/02 10:19:58;;;;;;;13.10;6.45;;;;;;;8.48;100.00;100416.50;5008740;28;20034;-54
2024/02/02 10:23:05;;;;;;;11.20;6.22;;;;;;;11.87;100.00;100396.28;5008297;28;20068;-52
2024/02/02 10:25:57;;;;;;;11.50;6.43;;;;;;;12.24;100.00;100386.69;5008440;28;20038;-52
2024/02/02 10:29:14;;;;;;;15.13;6.53;;;;;;;11.52;100.00;100390.19;5009910;28;20209;-52
2024/02/02 10:31:45;;;;;;;12.95;5.40;;;;;;;11.08;100.00;100393.25;5008511;28;20036;-52
2024/02/02 10:34:36;;;;;;;12.82;5.82;;;;;;;11.61;100.00;100400.03;5012355;28;20018;-52
2024/02/02 10:37:25;;;;;;;8.30;5.18;;;;;;;14.07;100.00;100376.88;5013423;28;20018;-52
2024/02/02 10:40:09;;;;;;;9.40;5.30;;;;;;;14.66;100.00;100374.09;5012531;28;20040;-52
2024/02/02 10:43:12;;;;;;;6.72;4.95;;;;;;;13.12;100.00;100359.19;5013995;28;20033;-52
2024/02/02 10:46:01;;;;;;;14.68;5.22;;;;;;;12.36;100.00;100349.16;5012482;28;20021;-52
2024/02/02 10:48:33;;;;;;;8.27;4.88;;;;;;;11.71;100.00;100342.03;5015736;28;20036;-52
2024/02/02 10:51:20;;;;;;;9.13;4.95;;;;;;;11.50;100.00;100337.16;5009680;28;20441;-52
2024/02/02 10:53:52;;;;;;;8.25;5.30;;;;;;;12.76;100.00;100326.38;5013349;28;20036;-52
2024/02/02 10:56:33;;;;;;;9.93;5.10;;;;;;;13.90;100.00;100323.66;5005057;28;20329;-52
2024/02/02 10:59:03;;;;;;;10.70;5.10;;;;;;;13.36;100.00;100306.53;5017881;28;20058;-52
2024/02/02 11:01:45;;;;;;;7.65;4.72;;;;;;;13.20;100.00;100301.19;5013298;28;20114;-52
2024/02/02 11:04:29;;;;;;;8.75;4.88;;;;;;;13.61;100.00;100303.56;5010303;28;20083;-52
2024/02/02 11:07:06;;;;;;;8.15;5.47;;;;;;;15.49;100.00;100308.22;5013877;28;20033;-52
2024/02/02 11:09:40;;;;;;;9.43;5.50;;;;;;;16.30;100.00;100322.16;5013935;28;20470;-53
2024/02/02 11:12:37;;;;;;;9.55;5.28;;;;;;;17.34;97.28;100306.41;5014537;28;20034;-53
2024/02/02 11:15:20;;;;;;;9.95;4.93;;;;;;;17.19;98.08;100306.63;5014086;28;20041;-53
2024/02/02 11:17:58;;;;;;;9.07;4.70;;;;;;;17.19;97.50;100314.84;5013824;28;20032;-53
2024/02/02 11:20:54;;;;;;;8.30;4.80;;;;;;;18.73;86.37;100321.63;5011145;28;20067;-53
2024/02/02 11:26:11;;;;;;;6.00;3.50;;;;;;;20.24;72.91;100306.00;4867707;22;20045;-69
2024/02/02 11:28:57;;;;;;;5.22;3.75;;;;;;;20.05;70.39;100291.44;5041243;28;20623;-70
2024/02/02 11:31:49;;;;;;;4.72;2.97;;;;;;;21.59;65.46;100286.25;5041065;28;20024;-69
2024/02/02 11:34:39;;;;;;;5.28;3.42;;;;;;;20.23;66.83;100288.69;5044891;28;20264;-69